AirNav   Air Wisconsin pilot careers
 
 1089 users online  

7S2 Winnett Airport
Winnett, Montana, USA

GOING TO WINNETT?


FAA INFORMATION EFFECTIVE 16 AUGUST 2018

Location

FAA Identifier: 7S2
Lat/Long: 46-58-36.0000N / 108-21-54.0000W
46-58.600000N / 108-21.900000W
46.9766667 / -108.3650000
(estimated)
Elevation: 2989 ft. / 911 m (estimated)
From city: 2 miles SW of WINNETT, MT
Time zone: UTC -6 (UTC -7 during Standard Time)
Zip code: 59084

Airport Operations

Airport use: Open to the public
Activation date: 06/2012
Control tower: no
ARTCC: SALT LAKE CITY CENTER
FSS: GREAT FALLS FLIGHT SERVICE STATION
NOTAMs facility: GTF (NOTAM-D service available)
Attendance: UNATNDD
Wind indicator: yes
Segmented circle: no

Airport Communications

CTAF: 122.9

Nearby radio navigation aids

NDB name  Hdg/Dist  Freq  Var  ID
ROUNDUP357/31.336217ERPX .-. .--. -..-

Airport Services

Runway Information

Runway 12/30

Dimensions: 3130 x 75 ft. / 954 x 23 m
Surface: turf, in good condition
Runway edge markings: RUNWAY 12/30 MARKED WITH WHITE CONES
RUNWAY 12  RUNWAY 30
Traffic pattern: leftleft
Markings: NSTD, in good conditionNSTD, in good condition
Obstructions: none50 ft. pline, marked, 846 ft. from runway, 17:1 slope to clear

Airport Ownership and Management from official FAA records

Ownership: Publicly-owned
Owner: PETROLEUM COUNTY
PO BOX 226, 302 EAST MAIN ST
WINNETT, MT 59087
Phone 406-429-6551
Manager: BILL CASSELL
PO BOX 226, 302 EAST MAIN ST
WINNETT, MT 59087
Phone 406-429-6551

Airport Operational Statistics

Aircraft based on the field: 1
Single engine airplanes: 1
    
Aircraft operations: 130/year *
77% local general aviation
23% transient general aviation
* for 12-month period ending 16 September 2014

Additional Remarks

NO SNOW REMOVAL.
RY MUDDY WHEN WET.
FOR RY CONDITIONS CALL 406-423-6361 OR 406-928-6363.
RY 30 PLINE 50 FT 846 FT EAST MARKED WITH WHITE AND ORANGE BALLS.

Instrument Procedures

There are no published instrument procedures at 7S2.

Some nearby airports with instrument procedures:

KRPX - Roundup Airport (31 nm S)
KLWT - Lewistown Municipal Airport (45 nm W)
KBIL - Billings Logan International Airport (71 nm S)
6S8 - Laurel Municipal Airport (78 nm S)
1S3 - Tillitt Field Airport (83 nm SE)
 
Loc | Ops | Rwys | IFR | FBO | Links
Com | Nav | Svcs | Stats | Notes


 
Aerial photo
No photo
 
Airport distance calculator
Flying to Winnett Airport? Find the distance to fly.

From to 7S2

Sunrise and sunset
Times for 21-Aug-2018
 Local
(UTC-6)
 Zulu
(UTC)
Morning civil twilight05:4711:47
Sunrise06:2012:20
Sunset20:1402:14
Evening civil twilight20:4602:46

Current date and time
Zulu (UTC)  22-Aug-2018 01:16:53
Local (UTC-6)  21-Aug-2018 19:16:53
 
METAR
KMVH 
25nm W 
220055Z AUTO 17004KT 10SM OVC020 13/09 A3030 RMK AO2
KRPX 
31nm S 
SuperAWOS
220055Z AUTO 15004KT 10SM 14/09 A3016
KLWT 
45nm W 
220054Z AUTO 08005KT 10SM OVC034 15/09 A3026 RMK AO2 SLP235 T01500094
TAF
KLWT 
45nm W 
211720Z 2118/2218 VRB06KT P6SM BKN025 OVC040 FM220500 VRB06KT P6SM FEW050
NOTAMs
Click for the latest NOTAMs
NOTAMs are issued by the DoD/FAA and will open in a separate window not controlled by AirNav.

 

 
 

Would you like to see your business listed on this page?

 If your business provides an interesting product or service to pilots, flight crews, aircraft, or users of the Winnett Airport, you should consider listing it here.  To start the listing process, click on the button below
 
Add a business
 

Other Pages about Winnett Airport

Update a link
 
Copyright © AirNav, LLC. All rights reserved. Privacy Policy  Contact